createdAt,value
2023-03-17T00:00:56.812Z,98166.22
2023-03-17T00:01:58.249Z,98165.44
2023-03-17T00:02:59.679Z,98172.56
2023-03-17T00:04:01.576Z,98168.31
2023-03-17T00:05:10.563Z,98167.00
2023-03-17T00:06:25.186Z,98162.97
2023-03-17T00:07:26.466Z,98160.38
2023-03-17T00:08:38.881Z,98163.78
2023-03-17T00:09:40.126Z,98159.34
2023-03-17T00:10:41.414Z,98150.97
2023-03-17T00:11:43.357Z,98152.03
2023-03-17T00:12:45.412Z,98145.97
2023-03-17T00:13:46.898Z,98137.03
2023-03-17T00:14:48.180Z,98144.16
2023-03-17T00:16:09.854Z,98134.19
2023-03-17T00:17:12.421Z,98135.25
2023-03-17T00:18:14.911Z,98133.69
2023-03-17T00:19:30.418Z,98132.88
2023-03-17T00:20:32.623Z,98126.84
2023-03-17T00:21:34.370Z,98126.56
2023-03-17T00:22:36.886Z,98127.06
2023-03-17T00:23:38.333Z,98117.84
2023-03-17T00:24:39.743Z,98119.19
2023-03-17T00:25:40.932Z,98125.50
2023-03-17T00:26:42.697Z,98123.41
2023-03-17T00:27:43.992Z,98128.91
2023-03-17T00:28:45.355Z,98127.84
2023-03-17T00:29:47.851Z,98122.81
2023-03-17T00:30:50.340Z,98124.66
2023-03-17T00:31:51.613Z,98126.72
2023-03-17T00:32:57.843Z,98126.72
2023-03-17T00:33:59.223Z,98120.44
2023-03-17T00:35:00.637Z,98121.47
2023-03-17T00:36:02.009Z,98120.44
2023-03-17T00:37:04.609Z,98126.66
2023-03-17T00:38:06.662Z,98120.38
2023-03-17T00:40:18.512Z,98123.84
2023-03-17T00:41:20.016Z,98124.63
2023-03-17T00:42:21.553Z,98119.78
2023-03-17T00:43:24.250Z,98118.00
2023-03-17T00:44:25.448Z,98123.56
2023-03-17T00:45:26.829Z,98119.06
2023-03-17T00:46:29.063Z,98119.06
2023-03-17T00:47:32.069Z,98121.47
2023-03-17T00:48:33.434Z,98125.94
2023-03-17T00:49:36.275Z,98115.44
2023-03-17T00:50:37.536Z,98120.19
2023-03-17T00:51:38.770Z,98121.81
2023-03-17T00:52:40.419Z,98121.56
2023-03-17T00:53:42.151Z,98116.31
2023-03-17T00:54:43.349Z,98121.81
2023-03-17T00:55:45.433Z,98125.78
2023-03-17T00:56:47.282Z,98116.59
2023-03-17T00:57:49.117Z,98116.59
2023-03-17T00:58:50.342Z,98112.06
2023-03-17T00:59:51.991Z,98105.25
2023-03-17T01:00:53.952Z,98105.53
2023-03-17T01:01:55.463Z,98097.66
2023-03-17T01:02:57.227Z,98106.38
2023-03-17T01:03:58.499Z,98100.03
2023-03-17T01:05:06.235Z,98096.34
2023-03-17T01:06:11.076Z,98100.00
2023-03-17T01:07:12.675Z,98086.06
2023-03-17T01:08:14.072Z,98097.66
2023-03-17T01:09:17.027Z,98092.94
2023-03-17T01:10:22.716Z,98099.25
2023-03-17T01:11:26.391Z,98097.41
2023-03-17T01:12:29.107Z,98089.81
2023-03-17T01:13:30.641Z,98094.00
2023-03-17T01:14:32.036Z,98101.09
2023-03-17T01:15:35.092Z,98089.81
2023-03-17T01:16:36.731Z,98093.47
2023-03-17T01:17:38.424Z,98089.00
2023-03-17T01:18:39.971Z,98087.97
2023-03-17T01:19:41.228Z,98084.81
2023-03-17T01:20:43.362Z,98091.63
2023-03-17T01:21:44.996Z,98089.28
2023-03-17T01:22:46.527Z,98085.59
2023-03-17T01:23:47.785Z,98083.19
2023-03-17T01:24:50.400Z,98079.28
2023-03-17T01:25:51.766Z,98081.88
2023-03-17T01:26:53.061Z,98087.63
2023-03-17T01:27:55.453Z,98084.19
2023-03-17T01:28:56.675Z,98084.69
2023-03-17T01:30:00.304Z,98095.50
2023-03-17T01:31:01.571Z,98092.09
2023-03-17T01:32:04.177Z,98087.13
2023-03-17T01:33:06.804Z,98093.41
2023-03-17T01:34:08.968Z,98091.59
2023-03-17T01:35:12.636Z,98087.66
2023-03-17T01:36:14.381Z,98084.25
2023-03-17T01:37:15.753Z,98079.00
2023-03-17T01:38:17.465Z,98083.47
2023-03-17T01:39:18.996Z,98072.97
2023-03-17T01:40:22.856Z,98070.09
2023-03-17T01:41:26.281Z,98077.97
2023-03-17T01:42:28.508Z,98071.44
2023-03-17T01:43:30.539Z,98070.94
2023-03-17T01:44:33.062Z,98072.00
2023-03-17T01:45:53.860Z,98074.63
2023-03-17T01:46:55.206Z,98071.22
2023-03-17T01:47:56.493Z,98071.22
2023-03-17T01:49:16.694Z,98070.16
2023-03-17T01:50:17.998Z,98066.97
2023-03-17T01:51:24.698Z,98063.56
2023-03-17T01:52:26.548Z,98064.84
2023-03-17T01:53:28.091Z,98064.06
2023-03-17T01:54:41.377Z,98065.91
2023-03-17T01:55:43.637Z,98068.25
2023-03-17T01:56:46.505Z,98056.94
2023-03-17T01:57:49.155Z,98068.53
2023-03-17T01:58:55.047Z,98065.13
2023-03-17T02:00:00.675Z,98064.56
2023-03-17T02:01:02.048Z,98059.28
2023-03-17T02:02:05.791Z,98060.06
2023-03-17T02:03:07.028Z,98056.34
2023-03-17T02:04:08.605Z,98054.44
2023-03-17T02:05:11.431Z,98061.53
2023-03-17T02:06:12.772Z,98054.19
2023-03-17T02:07:14.403Z,98054.44
2023-03-17T02:08:16.919Z,98055.75
2023-03-17T02:09:18.295Z,98058.97
2023-03-17T02:10:20.653Z,98053.19
2023-03-17T02:11:22.193Z,98056.88
2023-03-17T02:12:24.687Z,98053.78
2023-03-17T02:13:26.208Z,98059.53
2023-03-17T02:14:28.607Z,98062.16
2023-03-17T02:15:46.585Z,98060.59
2023-03-17T02:16:47.885Z,98062.31
2023-03-17T02:17:51.193Z,98063.09
2023-03-17T02:18:52.462Z,98060.47
2023-03-17T02:19:55.174Z,98056.78
2023-03-17T02:20:58.161Z,98064.19
2023-03-17T02:22:00.250Z,98065.72
2023-03-17T02:23:01.922Z,98058.56
2023-03-17T02:24:05.285Z,98050.97
2023-03-17T02:25:07.009Z,98056.22
2023-03-17T02:26:08.725Z,98050.19
2023-03-17T02:27:17.558Z,98048.34
2023-03-17T02:28:23.289Z,98045.94
2023-03-17T02:29:24.598Z,98057.72
2023-03-17T02:30:26.132Z,98059.56
2023-03-17T02:31:27.886Z,98057.44
2023-03-17T02:32:29.237Z,98054.59
2023-03-17T02:33:30.766Z,98057.78
2023-03-17T02:34:32.707Z,98062.81
2023-03-17T02:35:34.065Z,98057.56
2023-03-17T02:36:35.356Z,98056.00
2023-03-17T02:37:36.735Z,98045.19
2023-03-17T02:38:38.006Z,98051.81
2023-03-17T02:39:39.446Z,98044.47
2023-03-17T02:40:40.702Z,98040.75
2023-03-17T02:41:42.039Z,98046.03
2023-03-17T02:42:44.859Z,98042.63
2023-03-17T02:43:46.187Z,98044.69
2023-03-17T02:44:47.823Z,98041.78
2023-03-17T02:45:49.348Z,98036.25
2023-03-17T02:46:50.903Z,98037.03
2023-03-17T02:47:52.194Z,98039.13
2023-03-17T02:48:54.550Z,98043.38
2023-03-17T02:49:56.498Z,98042.06
2023-03-17T02:50:57.685Z,98036.03
2023-03-17T02:52:00.125Z,98041.50
2023-03-17T02:53:01.610Z,98037.53
2023-03-17T02:54:02.952Z,98045.41
2023-03-17T02:55:04.307Z,98048.03
2023-03-17T02:56:05.924Z,98035.97
2023-03-17T02:57:07.215Z,98042.50
2023-03-17T02:58:08.695Z,98043.56
2023-03-17T02:59:10.386Z,98044.34
2023-03-17T03:00:12.307Z,98036.44
2023-03-17T03:01:13.796Z,98040.94
2023-03-17T03:02:15.139Z,98034.88
2023-03-17T03:03:16.414Z,98036.75
2023-03-17T03:04:19.143Z,98037.81
2023-03-17T03:05:20.574Z,98038.09
2023-03-17T03:06:21.965Z,98028.78
2023-03-17T03:07:23.171Z,98028.00
2023-03-17T03:08:26.311Z,98030.63
2023-03-17T03:09:27.569Z,98030.94
2023-03-17T03:10:28.969Z,98026.50
2023-03-17T03:11:30.531Z,98017.31
2023-03-17T03:12:32.067Z,98019.72
2023-03-17T03:13:33.417Z,98026.34
2023-03-17T03:14:34.625Z,98024.25
2023-03-17T03:15:35.943Z,98022.09
2023-03-17T03:16:37.475Z,98024.00
2023-03-17T03:17:38.900Z,98022.22
2023-03-17T03:18:40.130Z,98033.28
2023-03-17T03:19:41.377Z,98030.16
2023-03-17T03:20:43.845Z,98031.19
2023-03-17T03:21:45.253Z,98028.38
2023-03-17T03:22:47.145Z,98021.75
2023-03-17T03:23:49.233Z,98031.25
2023-03-17T03:24:50.584Z,98025.50
2023-03-17T03:25:53.211Z,98026.06
2023-03-17T03:26:54.463Z,98018.75
2023-03-17T03:27:58.078Z,98030.81
2023-03-17T03:28:59.385Z,98025.06
2023-03-17T03:30:01.975Z,98030.59
2023-03-17T03:31:03.338Z,98025.63
2023-03-17T03:32:04.784Z,98037.69
2023-03-17T03:33:06.178Z,98032.97
2023-03-17T03:34:07.622Z,98031.72
2023-03-17T03:35:09.205Z,98022.03
2023-03-17T03:36:10.424Z,98024.94
2023-03-17T03:37:11.720Z,98029.69
2023-03-17T03:38:13.715Z,98028.66
2023-03-17T03:39:15.229Z,98018.97
2023-03-17T03:40:16.525Z,98024.03
2023-03-17T03:41:17.749Z,98023.00
2023-03-17T03:42:19.007Z,98019.13
2023-03-17T03:43:23.791Z,98025.16
2023-03-17T03:44:25.564Z,98021.25
2023-03-17T03:45:26.914Z,98020.78
2023-03-17T03:46:28.329Z,98017.63
2023-03-17T03:47:29.563Z,98023.16
2023-03-17T03:48:33.905Z,98023.69
2023-03-17T03:49:35.147Z,98024.75
2023-03-17T03:50:36.863Z,98024.00
2023-03-17T03:51:38.240Z,98027.94
2023-03-17T03:52:39.560Z,98037.66
2023-03-17T03:53:40.860Z,98035.31
2023-03-17T03:54:42.291Z,98037.16
2023-03-17T03:55:43.772Z,98035.06
2023-03-17T03:56:45.060Z,98036.91
2023-03-17T03:57:46.374Z,98037.75
2023-03-17T03:58:47.868Z,98037.25
2023-03-17T03:59:49.139Z,98033.59
2023-03-17T04:00:50.768Z,98032.56
2023-03-17T04:01:51.998Z,98036.56
2023-03-17T04:02:53.535Z,98030.47
2023-03-17T04:03:54.845Z,98029.69
2023-03-17T04:04:56.392Z,98036.03
2023-03-17T04:05:57.721Z,98030.28
2023-03-17T04:06:59.072Z,98028.97
2023-03-17T04:08:00.416Z,98031.59
2023-03-17T04:09:01.614Z,98028.47
2023-03-17T04:10:04.573Z,98025.06
2023-03-17T04:11:05.924Z,98015.34
2023-03-17T04:12:07.530Z,98021.38
2023-03-17T04:13:08.763Z,98022.94
2023-03-17T04:14:10.289Z,98022.16
2023-03-17T04:15:14.585Z,98015.88
2023-03-17T04:16:15.919Z,98010.91
2023-03-17T04:17:17.243Z,98018.00
2023-03-17T04:18:18.434Z,98022.19
2023-03-17T04:19:20.777Z,98021.13
2023-03-17T04:20:22.528Z,98012.19
2023-03-17T04:21:23.787Z,98021.38
2023-03-17T04:22:25.103Z,98020.59
2023-03-17T04:23:26.371Z,98019.56
2023-03-17T04:24:27.649Z,98010.13
2023-03-17T04:25:28.924Z,98012.75
2023-03-17T04:26:30.600Z,98012.75
2023-03-17T04:27:31.936Z,98010.38
2023-03-17T04:28:33.657Z,98006.97
2023-03-17T04:29:35.028Z,97999.66
2023-03-17T04:30:36.992Z,98001.22
2023-03-17T04:31:38.491Z,98007.75
2023-03-17T04:32:39.838Z,98001.22
2023-03-17T04:33:42.497Z,98000.97
2023-03-17T04:34:43.766Z,98008.06
2023-03-17T04:35:44.996Z,98005.72
2023-03-17T04:36:47.076Z,98010.72
2023-03-17T04:37:51.533Z,98006.56
2023-03-17T04:38:52.757Z,98012.31
2023-03-17T04:39:56.731Z,98011.81
2023-03-17T04:40:58.047Z,98004.47
2023-03-17T04:41:59.497Z,98011.00
2023-03-17T04:43:03.326Z,98013.13
2023-03-17T04:44:05.163Z,98002.38
2023-03-17T04:45:06.908Z,98004.44
2023-03-17T04:46:08.781Z,98005.00
2023-03-17T04:47:10.338Z,97998.94
2023-03-17T04:48:11.821Z,97993.97
2023-03-17T04:49:13.096Z,97996.09
2023-03-17T04:50:14.458Z,97995.56
2023-03-17T04:51:15.653Z,97991.38
2023-03-17T04:52:16.856Z,97995.06
2023-03-17T04:53:18.184Z,97994.53
2023-03-17T04:54:19.471Z,97999.28
2023-03-17T04:55:21.035Z,97996.13
2023-03-17T04:56:22.347Z,97999.78
2023-03-17T04:57:24.067Z,97998.19
2023-03-17T04:58:30.896Z,97992.69
2023-03-17T04:59:32.580Z,97995.84
2023-03-17T05:00:34.079Z,97999.25
2023-03-17T05:01:38.037Z,97992.72
2023-03-17T05:02:40.395Z,97994.03
2023-03-17T05:03:41.753Z,97991.94
2023-03-17T05:04:42.995Z,97995.63
2023-03-17T05:05:46.910Z,97988.81
2023-03-17T05:06:48.499Z,97990.94
2023-03-17T05:07:49.751Z,97997.50
2023-03-17T05:08:51.297Z,97992.53
2023-03-17T05:09:52.552Z,97984.66
2023-03-17T05:10:54.569Z,97983.88
2023-03-17T05:11:56.979Z,97985.16
2023-03-17T05:12:58.211Z,97988.56
2023-03-17T05:13:59.481Z,97981.75
2023-03-17T05:15:00.893Z,97992.25
2023-03-17T05:16:02.424Z,97988.81
2023-03-17T05:17:03.741Z,97989.88
2023-03-17T05:18:05.142Z,97989.88
2023-03-17T05:19:06.436Z,97984.34
2023-03-17T05:20:08.298Z,97986.97
2023-03-17T05:21:09.502Z,97988.56
2023-03-17T05:22:11.008Z,97988.06
2023-03-17T05:23:14.695Z,97985.97
2023-03-17T05:24:16.934Z,97992.78
2023-03-17T05:25:18.299Z,97988.34
2023-03-17T05:26:22.068Z,97989.66
2023-03-17T05:27:23.500Z,97995.72
2023-03-17T05:28:24.992Z,97990.22
2023-03-17T05:29:27.376Z,97988.91
2023-03-17T05:30:29.021Z,97996.00
2023-03-17T05:31:30.810Z,97999.94
2023-03-17T05:32:32.140Z,98007.56
2023-03-17T05:33:33.465Z,98003.34
2023-03-17T05:34:34.796Z,98007.31
2023-03-17T05:35:36.413Z,98008.34
2023-03-17T05:36:38.992Z,98008.34
2023-03-17T05:37:40.259Z,98016.47
2023-03-17T05:38:41.504Z,98004.41
2023-03-17T05:39:42.786Z,98017.78
2023-03-17T05:40:44.326Z,98013.63
2023-03-17T05:41:45.512Z,98015.97
2023-03-17T05:42:54.142Z,98018.28
2023-03-17T05:43:55.447Z,98014.13
2023-03-17T05:44:59.879Z,98021.19
2023-03-17T05:46:01.139Z,98016.22
2023-03-17T05:47:02.443Z,98014.41
2023-03-17T05:48:04.268Z,98009.94
2023-03-17T05:49:06.025Z,98003.63
2023-03-17T05:50:08.199Z,97998.34
2023-03-17T05:51:10.777Z,97996.25
2023-03-17T05:52:12.494Z,97996.47
2023-03-17T05:53:13.946Z,98004.09
2023-03-17T05:54:15.232Z,98001.47
2023-03-17T05:55:17.111Z,98001.97
2023-03-17T05:56:18.363Z,97997.50
2023-03-17T05:57:19.591Z,97999.84
2023-03-17T05:58:21.074Z,97996.69
2023-03-17T05:59:22.605Z,97999.56
2023-03-17T06:00:23.900Z,97991.13
2023-03-17T06:01:25.361Z,97993.47
2023-03-17T06:02:26.553Z,97990.56
2023-03-17T06:03:28.280Z,97993.94
2023-03-17T06:04:31.805Z,97986.56
2023-03-17T06:05:33.520Z,97992.03
2023-03-17T06:06:34.791Z,97995.41
2023-03-17T06:07:50.822Z,97988.34
2023-03-17T06:08:53.612Z,97988.56
2023-03-17T06:09:54.833Z,97990.94
2023-03-17T06:10:57.812Z,97988.81
2023-03-17T06:12:00.294Z,97994.53
2023-03-17T06:13:03.901Z,97999.25
2023-03-17T06:14:05.779Z,97997.16
2023-03-17T06:15:07.732Z,97991.63
2023-03-17T06:16:09.112Z,97997.38
2023-03-17T06:17:10.783Z,97999.47
2023-03-17T06:18:12.138Z,98000.75
2023-03-17T06:19:13.527Z,98000.97
2023-03-17T06:20:14.992Z,97998.31
2023-03-17T06:21:16.281Z,98004.56
2023-03-17T06:22:17.952Z,98004.81
2023-03-17T06:23:19.184Z,98008.47
2023-03-17T06:24:20.422Z,97999.69
2023-03-17T06:25:21.690Z,98003.59
2023-03-17T06:26:23.212Z,97995.97
2023-03-17T06:27:24.472Z,98004.56
2023-03-17T06:28:26.627Z,97999.03
2023-03-17T06:29:28.172Z,98009.47
2023-03-17T06:30:30.194Z,98015.47
2023-03-17T06:31:31.789Z,98015.22
2023-03-17T06:32:33.099Z,98008.59
2023-03-17T06:33:34.857Z,98010.69
2023-03-17T06:34:36.415Z,98014.31
2023-03-17T06:35:37.663Z,98008.78
2023-03-17T06:36:39.155Z,98008.22
2023-03-17T06:37:41.706Z,98006.88
2023-03-17T06:38:43.050Z,98011.00
2023-03-17T06:39:44.302Z,98005.47
2023-03-17T06:40:45.643Z,97996.53
2023-03-17T06:41:46.847Z,98008.59
2023-03-17T06:42:48.064Z,97997.81
2023-03-17T06:43:49.237Z,97995.69
2023-03-17T06:44:50.700Z,97995.38
2023-03-17T06:45:51.896Z,97993.78
2023-03-17T06:46:53.186Z,97992.16
2023-03-17T06:47:57.345Z,97994.50
2023-03-17T06:48:59.012Z,97995.00
2023-03-17T06:50:00.325Z,97998.13
2023-03-17T06:51:01.592Z,97999.91
2023-03-17T06:52:03.265Z,98002.47
2023-03-17T06:53:04.653Z,98001.91
2023-03-17T06:54:08.519Z,97997.38
2023-03-17T06:55:10.043Z,97990.47
2023-03-17T06:56:23.519Z,97990.41
2023-03-17T06:57:30.329Z,97992.19
2023-03-17T06:58:31.663Z,98000.28
2023-03-17T06:59:32.887Z,97995.25
2023-03-17T07:00:34.203Z,97993.59
2023-03-17T07:01:35.545Z,97994.31
2023-03-17T07:02:36.758Z,97995.31
2023-03-17T07:03:38.590Z,97994.75
2023-03-17T07:04:39.925Z,97994.31
2023-03-17T07:05:41.732Z,98006.31
2023-03-17T07:06:42.952Z,97999.13
2023-03-17T07:07:44.257Z,98004.03
2023-03-17T07:08:45.548Z,98004.22
2023-03-17T07:09:46.756Z,98001.81
2023-03-17T07:10:48.221Z,98003.56
2023-03-17T07:11:49.537Z,98006.91
2023-03-17T07:12:50.880Z,97992.56
2023-03-17T07:13:52.170Z,98005.94
2023-03-17T07:14:53.385Z,98014.06
2023-03-17T07:15:55.541Z,98011.34
2023-03-17T07:16:57.293Z,98007.06
2023-03-17T07:17:58.745Z,98013.59
2023-03-17T07:19:00.000Z,98019.78
2023-03-17T07:20:01.217Z,98019.19
2023-03-17T07:21:03.380Z,98022.03
2023-03-17T07:22:04.924Z,98025.94
2023-03-17T07:23:06.244Z,98021.94
2023-03-17T07:24:07.827Z,98022.94
2023-03-17T07:25:09.790Z,98023.13
2023-03-17T07:26:11.260Z,98018.81
2023-03-17T07:27:12.567Z,98024.31
2023-03-17T07:28:14.406Z,98031.03
2023-03-17T07:29:16.751Z,98018.84
2023-03-17T07:30:18.347Z,98021.38
2023-03-17T07:31:19.899Z,98025.56
2023-03-17T07:32:21.310Z,98033.72
2023-03-17T07:33:22.871Z,98026.50
2023-03-17T07:34:24.326Z,98036.16
2023-03-17T07:35:25.724Z,98038.69
2023-03-17T07:36:27.034Z,98036.75
2023-03-17T07:37:29.360Z,98021.41
2023-03-17T07:38:33.428Z,98028.44
2023-03-17T07:39:34.786Z,98030.38
2023-03-17T07:40:37.214Z,98024.81
2023-03-17T07:41:38.541Z,98025.28
2023-03-17T07:42:42.958Z,98024.41
2023-03-17T07:43:44.266Z,98026.16
2023-03-17T07:44:45.839Z,98029.25
2023-03-17T07:45:47.304Z,98026.81
2023-03-17T07:46:49.308Z,98018.91
2023-03-17T07:47:50.587Z,98019.09
2023-03-17T07:48:51.907Z,98012.94
2023-03-17T07:49:53.244Z,98015.72
2023-03-17T07:50:54.888Z,98014.56
2023-03-17T07:51:56.174Z,97999.06
2023-03-17T07:52:57.477Z,98001.13
2023-03-17T07:53:58.723Z,98000.81
2023-03-17T07:55:02.375Z,98001.47
2023-03-17T07:56:03.796Z,98003.53
2023-03-17T07:57:05.827Z,98003.41
2023-03-17T07:58:07.123Z,98001.22
2023-03-17T07:59:08.393Z,98004.53
2023-03-17T08:00:10.252Z,98013.41
2023-03-17T08:01:16.240Z,98003.63
2023-03-17T08:02:18.424Z,98005.69
2023-03-17T08:03:19.973Z,98003.50
2023-03-17T08:04:21.252Z,98007.41
2023-03-17T08:05:22.551Z,98003.09
2023-03-17T08:06:23.949Z,98005.94
2023-03-17T08:07:25.601Z,98007.16
2023-03-17T08:08:27.718Z,97992.59
2023-03-17T08:09:29.042Z,97992.44
2023-03-17T08:10:30.604Z,98001.63
2023-03-17T08:11:32.103Z,97992.44
2023-03-17T08:12:34.065Z,97999.28
2023-03-17T08:13:35.530Z,98002.72
2023-03-17T08:14:36.772Z,97999.28
2023-03-17T08:15:38.046Z,98006.13
2023-03-17T08:16:39.860Z,98006.44
2023-03-17T08:17:42.581Z,98007.09
2023-03-17T08:18:43.861Z,98006.59
2023-03-17T08:19:45.148Z,98002.59
2023-03-17T08:20:46.697Z,98006.31
2023-03-17T08:21:49.386Z,98006.00
2023-03-17T08:22:54.181Z,97999.50
2023-03-17T08:23:55.669Z,97994.72
2023-03-17T08:24:56.960Z,97998.13
2023-03-17T08:25:59.230Z,97993.16
2023-03-17T08:27:01.096Z,97990.19
2023-03-17T08:28:02.504Z,97989.88
2023-03-17T08:29:04.132Z,97984.00
2023-03-17T08:30:05.940Z,97999.56
2023-03-17T08:31:11.091Z,97991.63
2023-03-17T08:32:13.934Z,97995.03
2023-03-17T08:33:15.189Z,97997.41
2023-03-17T08:34:16.473Z,97998.31
2023-03-17T08:35:17.991Z,97991.66
2023-03-17T08:36:19.986Z,98001.66
2023-03-17T08:37:23.617Z,97993.56
2023-03-17T08:38:25.100Z,97988.75
2023-03-17T08:39:26.886Z,97991.56
2023-03-17T08:40:28.698Z,97987.06
2023-03-17T08:41:30.324Z,97987.50
2023-03-17T08:42:31.702Z,97989.88
2023-03-17T08:43:33.491Z,97988.94
2023-03-17T08:44:37.035Z,97985.22
2023-03-17T08:45:38.714Z,97993.28
2023-03-17T08:46:40.002Z,97986.16
2023-03-17T08:47:41.256Z,97990.06
2023-03-17T08:48:42.593Z,97986.03
2023-03-17T08:49:43.903Z,97985.88
2023-03-17T08:50:45.435Z,97978.44
2023-03-17T08:51:46.611Z,97974.38
2023-03-17T08:52:48.055Z,97979.66
2023-03-17T08:53:49.529Z,97977.78
2023-03-17T08:54:50.960Z,97977.50
2023-03-17T08:55:54.344Z,97978.28
2023-03-17T08:56:57.774Z,97978.44
2023-03-17T08:57:59.118Z,97981.88
2023-03-17T08:59:00.537Z,97978.91
2023-03-17T09:00:02.793Z,97981.25
2023-03-17T09:01:04.731Z,97976.44
2023-03-17T09:02:06.116Z,97982.38
2023-03-17T09:03:07.591Z,97979.59
2023-03-17T09:04:08.889Z,97977.09
2023-03-17T09:05:13.890Z,97981.31
2023-03-17T09:06:17.575Z,97976.81
2023-03-17T09:07:18.994Z,97985.53
2023-03-17T09:08:20.591Z,97982.41
2023-03-17T09:09:21.839Z,97980.22
2023-03-17T09:10:23.645Z,97981.94
2023-03-17T09:11:28.698Z,97982.72
2023-03-17T09:12:30.069Z,97977.09
2023-03-17T09:13:31.613Z,97978.81
2023-03-17T09:14:42.772Z,97980.84
2023-03-17T09:15:45.195Z,97979.28
2023-03-17T09:16:47.785Z,97980.06
2023-03-17T09:17:49.204Z,97978.22
2023-03-17T09:18:50.704Z,97974.47
2023-03-17T09:19:52.172Z,97973.81
2023-03-17T09:20:53.504Z,97971.66
2023-03-17T09:21:54.790Z,97972.53
2023-03-17T09:22:56.755Z,97968.97
2023-03-17T09:23:59.258Z,97968.78
2023-03-17T09:25:02.481Z,97972.81
2023-03-17T09:26:03.867Z,97971.44
2023-03-17T09:27:05.680Z,97973.75
2023-03-17T09:28:07.011Z,97974.84
2023-03-17T09:29:08.319Z,97970.66
2023-03-17T09:30:09.914Z,97970.66
2023-03-17T09:31:11.900Z,97972.19
2023-03-17T09:32:13.354Z,97976.13
2023-03-17T09:33:14.716Z,97974.38
2023-03-17T09:34:16.000Z,97974.84
2023-03-17T09:35:17.479Z,97973.41
2023-03-17T09:36:19.117Z,97980.13
2023-03-17T09:37:20.475Z,97973.06
2023-03-17T09:38:21.668Z,97974.00
2023-03-17T09:39:23.189Z,97970.41
2023-03-17T09:40:30.257Z,97972.44
2023-03-17T09:41:48.938Z,97971.78
2023-03-17T09:42:54.686Z,97973.34
2023-03-17T09:43:58.882Z,97975.69
2023-03-17T09:45:06.180Z,97971.44
2023-03-17T09:46:22.924Z,97979.41
2023-03-17T09:47:37.957Z,97975.00
2023-03-17T09:48:39.212Z,97978.72
2023-03-17T09:49:47.752Z,97972.44
2023-03-17T09:50:53.716Z,97980.56
2023-03-17T09:51:55.564Z,97980.81
2023-03-17T09:52:57.864Z,97974.56
2023-03-17T09:54:03.686Z,97977.03
2023-03-17T09:55:06.369Z,97981.34
2023-03-17T09:56:11.751Z,97980.34
2023-03-17T09:57:16.588Z,97973.88
2023-03-17T09:58:20.873Z,97976.41
2023-03-17T09:59:28.498Z,97975.75
2023-03-17T10:00:29.898Z,97972.00
2023-03-17T10:01:31.428Z,97976.47
2023-03-17T10:02:37.013Z,97974.69
2023-03-17T10:03:38.679Z,97974.81
2023-03-17T10:04:39.913Z,97965.53
2023-03-17T10:05:41.178Z,97958.03
2023-03-17T10:06:43.359Z,97966.13
2023-03-17T10:07:44.659Z,97956.38
2023-03-17T10:09:00.672Z,97957.75
2023-03-17T10:10:03.888Z,97955.66
2023-03-17T10:11:05.391Z,97958.88
2023-03-17T10:12:12.516Z,97954.78
2023-03-17T10:13:25.497Z,97956.44
2023-03-17T10:14:35.206Z,97954.81
2023-03-17T10:15:50.453Z,97955.25
2023-03-17T10:17:04.155Z,97956.50
2023-03-17T10:18:09.040Z,97944.19
2023-03-17T10:19:15.460Z,97947.88
2023-03-17T10:20:22.990Z,97949.53
2023-03-17T10:21:30.337Z,97945.53
2023-03-17T10:22:44.991Z,97941.00
2023-03-17T10:23:46.370Z,97941.00
2023-03-17T10:24:52.770Z,97938.91
2023-03-17T10:25:55.252Z,97929.69
2023-03-17T10:26:57.708Z,97930.81
2023-03-17T10:27:58.991Z,97938.34
2023-03-17T10:29:01.628Z,97938.44
2023-03-17T10:30:03.366Z,97936.13
2023-03-17T10:31:15.076Z,97935.78
2023-03-17T10:32:16.522Z,97931.16
2023-03-17T10:33:17.981Z,97934.59
2023-03-17T10:34:22.168Z,97935.13
2023-03-17T10:35:23.765Z,97923.47
2023-03-17T10:36:36.106Z,97934.13
2023-03-17T10:37:37.440Z,97929.25
2023-03-17T10:38:38.996Z,97930.47
2023-03-17T10:39:51.541Z,97913.13
2023-03-17T10:40:57.359Z,97916.91
2023-03-17T10:42:00.295Z,97923.44
2023-03-17T10:43:03.455Z,97918.97
2023-03-17T10:44:09.005Z,97919.41
2023-03-17T10:45:15.626Z,97922.19
2023-03-17T10:46:21.266Z,97927.97
2023-03-17T10:47:22.699Z,97924.28
2023-03-17T10:48:23.935Z,97918.38
2023-03-17T10:49:25.365Z,97920.13
2023-03-17T10:50:48.592Z,97918.75
2023-03-17T10:51:52.155Z,97922.84
2023-03-17T10:53:00.926Z,97933.59
2023-03-17T10:54:07.017Z,97927.56
2023-03-17T10:55:09.467Z,97925.44
2023-03-17T10:56:17.998Z,97928.72
2023-03-17T10:57:19.424Z,97932.53
2023-03-17T10:58:38.059Z,97931.84
2023-03-17T10:59:44.500Z,97927.22
2023-03-17T11:01:02.497Z,97925.09
2023-03-17T11:02:16.142Z,97918.75
2023-03-17T11:03:21.107Z,97919.41
2023-03-17T11:04:36.186Z,97918.47
2023-03-17T11:05:39.037Z,97913.28
2023-03-17T11:06:42.358Z,97913.50
2023-03-17T11:07:43.707Z,97908.75
2023-03-17T11:08:47.412Z,97905.31
2023-03-17T11:09:49.639Z,97911.59
2023-03-17T11:10:55.216Z,97908.22
2023-03-17T11:12:06.916Z,97909.84
2023-03-17T11:13:08.567Z,97906.63
2023-03-17T11:14:17.057Z,97902.91
2023-03-17T11:15:18.316Z,97900.31
2023-03-17T11:16:22.259Z,97904.53
2023-03-17T11:17:43.998Z,97896.31
2023-03-17T11:18:46.664Z,97893.38
2023-03-17T11:19:57.811Z,97892.25
2023-03-17T11:21:02.478Z,97896.53
2023-03-17T11:22:14.539Z,97888.31
2023-03-17T11:23:26.888Z,97885.63
2023-03-17T11:24:32.169Z,97881.13
2023-03-17T11:25:37.382Z,97881.50
2023-03-17T11:26:51.306Z,97881.81
2023-03-17T11:28:07.263Z,97886.91
2023-03-17T11:29:20.381Z,97879.81
2023-03-17T11:30:24.613Z,97877.69
2023-03-17T11:31:30.804Z,97880.00
2023-03-17T11:32:42.019Z,97874.00
2023-03-17T11:34:07.541Z,97882.47
2023-03-17T11:35:08.857Z,97874.81
2023-03-17T11:36:31.035Z,97877.13
2023-03-17T11:37:58.786Z,97864.97
2023-03-17T11:39:10.098Z,97870.88
2023-03-17T11:40:27.114Z,97865.31
2023-03-17T11:41:38.787Z,97863.16
2023-03-17T11:42:51.982Z,97865.94
2023-03-17T11:43:53.217Z,97864.03
2023-03-17T11:45:09.129Z,97862.19
2023-03-17T11:46:23.736Z,97860.41
2023-03-17T11:47:27.654Z,97863.88
2023-03-17T11:48:48.493Z,97861.22
2023-03-17T11:49:55.788Z,97853.25
2023-03-17T11:51:05.686Z,97858.34
2023-03-17T11:52:32.094Z,97859.59
2023-03-17T11:53:47.936Z,97854.03
2023-03-17T11:54:57.083Z,97861.78
2023-03-17T11:56:06.273Z,97853.13
2023-03-17T11:57:12.910Z,97860.47
2023-03-17T11:58:25.054Z,97854.41
2023-03-17T11:59:30.856Z,97854.09
2023-03-17T12:00:34.676Z,97858.41
2023-03-17T12:01:50.410Z,97855.44
2023-03-17T12:02:57.641Z,97850.50
2023-03-17T12:04:10.258Z,97852.44
2023-03-17T12:05:21.192Z,97847.88
2023-03-17T12:06:22.479Z,97850.63
2023-03-17T12:07:28.976Z,97849.47
2023-03-17T12:08:46.600Z,97849.59
2023-03-17T12:09:54.173Z,97846.13
2023-03-17T12:10:57.416Z,97853.38
2023-03-17T12:12:01.384Z,97858.38
2023-03-17T12:13:21.656Z,97853.41
2023-03-17T12:14:28.853Z,97855.38
2023-03-17T12:15:33.278Z,97854.31
2023-03-17T12:16:40.372Z,97854.28
2023-03-17T12:17:48.811Z,97853.53
2023-03-17T12:19:09.193Z,97849.59
2023-03-17T12:20:19.814Z,97838.16
2023-03-17T12:21:23.926Z,97850.41
2023-03-17T12:22:31.510Z,97842.34
2023-03-17T12:23:35.738Z,97837.38
2023-03-17T12:24:55.868Z,97839.34
2023-03-17T12:26:00.242Z,97837.91